Archiv-/Tagesdaten

--Timestamp---	Temp	Chill	HIndex	Humid	Dewpt	Wind	HiWind	WindDir	Rain	Barom	        Solar	ET	UV
--------------	----	-----	------	-----	-----	----	------	-------	----	-----	        -----	--	--
20080616 00:05	11.2	11.2	11.2	85	8.7	3	10	202	0.00	1009.553	0	0.000	0
20080616 00:10	11.2	11.2	11.2	85	8.7	2	6	180	0.00	1009.722	0	0.000	0
20080616 00:15	11.1	11.1	11.1	86	8.9	3	8	225	0.20	1009.790	0	0.000	0
20080616 00:20	10.9	10.9	10.9	87	8.9	3	10	202	0.20	1009.519	0	0.000	0
20080616 00:25	10.9	10.9	10.9	88	9.0	2	5	202	0.00	1009.485	0	0.000	0
20080616 00:30	10.8	10.8	10.8	88	8.9	2	8	157	0.00	1009.553	0	0.000	0
20080616 00:35	10.8	10.8	10.8	88	8.9	2	8	202	0.00	1009.553	0	0.000	0
20080616 00:40	10.8	10.8	10.8	88	8.9	2	6	202	0.00	1009.553	0	0.000	0
20080616 00:45	10.7	10.7	10.7	88	8.8	0	3	202	0.00	1009.553	0	0.000	0
20080616 00:50	10.7	10.7	10.7	89	8.9	2	6	202	0.00	1009.519	0	0.000	0
20080616 00:55	10.7	10.7	10.7	87	8.6	3	10	202	0.00	1009.451	0	0.000	0
20080616 01:00	10.6	10.6	10.6	87	8.5	5	10	202	0.00	1009.451	0	0.000	0
20080616 01:05	10.6	10.6	10.6	86	8.3	3	11	225	0.00	1009.384	0	0.000	0
20080616 01:10	10.5	10.5	10.5	86	8.3	3	10	225	0.00	1009.350	0	0.000	0
20080616 01:15	10.4	10.4	10.4	86	8.2	2	8	225	0.00	1009.350	0	0.000	0
20080616 01:20	10.4	10.4	10.4	86	8.2	2	5	225	0.00	1009.248	0	0.000	0
20080616 01:25	10.4	10.4	10.4	86	8.1	2	6	225	0.00	1009.214	0	0.000	0
20080616 01:30	10.3	10.3	10.3	86	8.1	3	8	202	0.00	1009.248	0	0.000	0
20080616 01:35	10.3	10.3	10.3	86	8.0	2	6	202	0.00	1009.316	0	0.000	0
20080616 01:40	10.2	10.2	10.2	87	8.2	2	6	202	0.00	1009.248	0	0.000	0
20080616 01:45	10.2	10.2	10.2	87	8.1	2	6	202	0.00	1009.214	0	0.000	0
20080616 01:50	10.1	10.1	10.1	87	8.0	3	8	202	0.00	1009.147	0	0.000	0
20080616 01:55	10.1	10.1	10.1	87	8.0	2	6	202	0.00	1009.079	0	0.000	0
20080616 02:00	10.0	10.0	10.0	87	7.9	2	6	202	0.00	1009.011	0	0.000	0
20080616 02:05	9.9	9.9	9.9	87	7.9	3	6	202	0.00	1009.011	0	0.000	0
20080616 02:10	9.9	9.9	9.9	87	7.8	3	8	202	0.00	1009.011	0	0.000	0
20080616 02:15	9.8	9.8	9.8	88	7.9	5	10	202	0.00	1008.977	0	0.000	0
20080616 02:20	9.8	9.8	9.8	88	7.9	2	8	202	0.00	1008.943	0	0.000	0
20080616 02:25	9.9	9.9	9.9	88	8.0	3	8	202	0.00	1008.977	0	0.000	0
20080616 02:30	9.9	9.9	9.9	88	8.0	2	6	202	0.00	1008.876	0	0.000	0
20080616 02:35	9.9	9.9	9.9	88	8.0	0	3	202	0.00	1008.842	0	0.000	0
20080616 02:40	9.9	9.9	9.9	88	8.0	0	3	202	0.00	1008.876	0	0.000	0
20080616 02:45	9.9	9.9	9.9	89	8.2	0	5	202	0.00	1008.876	0	0.000	0
20080616 02:50	9.9	9.9	9.9	89	8.2	0	5	202	0.00	1008.808	0	0.000	0
20080616 02:55	9.9	9.9	9.9	88	8.0	0	2	202	0.00	1008.808	0	0.000	0
20080616 03:00	9.9	9.9	9.9	88	8.0	0	5	202	0.00	1008.774	0	0.000	0
20080616 03:05	9.8	9.8	9.8	88	7.9	2	8	202	0.00	1008.808	0	0.000	0
20080616 03:10	9.8	9.8	9.8	88	7.9	3	10	202	0.00	1008.876	0	0.000	0
20080616 03:15	9.8	9.8	9.8	88	7.9	2	8	202	0.00	1008.910	0	0.000	0
20080616 03:20	9.8	9.8	9.8	88	7.9	3	8	202	0.00	1008.943	0	0.000	0
20080616 03:25	9.8	9.8	9.8	88	7.9	2	6	202	0.00	1008.910	0	0.000	0
20080616 03:30	9.8	9.8	9.8	87	7.7	3	11	202	0.00	1008.876	0	0.000	0
20080616 03:35	9.8	9.8	9.8	88	7.9	2	6	225	0.00	1008.808	0	0.000	0
20080616 03:40	9.8	9.8	9.8	88	7.9	2	6	180	0.00	1008.740	0	0.000	0
20080616 03:45	9.7	9.7	9.7	87	7.7	3	6	180	0.00	1008.740	0	0.000	0
20080616 03:50	9.7	9.7	9.7	88	7.8	2	6	180	0.00	1008.740	0	0.000	0
20080616 03:55	9.7	9.7	9.7	88	7.8	2	6	180	0.00	1008.740	0	0.000	0
20080616 04:00	9.7	9.7	9.7	88	7.8	2	5	180	0.00	1008.706	0	0.000	0
20080616 04:05	9.7	9.7	9.7	87	7.7	2	8	225	0.00	1008.842	0	0.000	0
20080616 04:10	9.7	9.7	9.7	87	7.7	3	6	225	0.00	1008.808	0	0.000	0
20080616 04:15	9.7	9.7	9.7	86	7.5	2	3	225	0.00	1008.774	0	0.000	0
20080616 04:20	9.7	9.7	9.7	86	7.5	2	6	225	0.00	1008.774	0	0.000	0
20080616 04:25	9.8	9.8	9.8	87	7.7	2	8	225	0.00	1008.774	0	0.000	0
20080616 04:30	9.7	9.7	9.7	86	7.5	2	8	225	0.00	1008.808	0	0.000	0
20080616 04:35	9.7	9.7	9.7	86	7.5	2	6	225	0.20	1008.740	0	0.000	0
20080616 04:40	9.7	9.7	9.7	87	7.7	2	5	225	0.00	1008.740	0	0.000	0
20080616 04:45	9.7	9.7	9.7	87	7.6	2	6	225	0.00	1008.774	0	0.000	0
20080616 04:50	9.7	9.7	9.7	87	7.6	2	6	225	0.00	1008.740	0	0.000	0
20080616 04:55	9.7	9.7	9.7	87	7.6	2	5	225	0.00	1008.706	0	0.000	0
20080616 05:00	9.7	9.7	9.7	87	7.7	2	5	225	0.00	1008.706	0	0.000	0
20080616 05:05	9.7	9.7	9.7	87	7.7	0	5	225	0.00	1008.706	0	0.000	0
20080616 05:10	9.7	9.7	9.7	87	7.7	0	3	225	0.00	1008.706	0	0.000	0
20080616 05:15	9.7	9.7	9.7	88	7.8	0	3	202	0.00	1008.740	0	0.000	0
20080616 05:20	9.7	9.7	9.7	88	7.8	0	3	202	0.00	1008.740	0	0.000	0
20080616 05:25	9.7	9.7	9.7	88	7.8	0	2	202	0.00	1008.774	0	0.000	0
20080616 05:30	9.7	9.7	9.7	88	7.8	3	8	202	0.00	1008.774	0	0.000	0
20080616 05:35	9.6	9.6	9.6	88	7.7	3	8	202	0.00	1008.774	0	0.000	0
20080616 05:40	9.6	9.6	9.6	88	7.7	2	5	202	0.00	1008.842	0	0.000	0
20080616 05:45	9.6	9.6	9.6	88	7.7	2	8	202	0.00	1008.842	0	0.000	0
20080616 05:50	9.6	9.6	9.6	88	7.7	2	8	202	0.00	1008.808	1	0.000	0
20080616 05:55	9.6	9.6	9.6	88	7.7	3	8	202	0.00	1008.842	5	0.000	0
20080616 06:00	9.6	9.6	9.6	88	7.7	3	6	202	0.00	1008.842	7	0.000	0
20080616 06:05	9.6	9.6	9.6	88	7.7	2	8	202	0.20	1008.943	8	0.000	0
20080616 06:10	9.7	9.7	9.7	88	7.8	0	2	202	0.00	1008.910	9	0.000	0
20080616 06:15	9.7	9.7	9.7	89	8.0	0	2	202	0.00	1008.808	10	0.000	0
20080616 06:20	9.7	9.7	9.7	89	8.0	0	2	202	0.00	1008.774	12	0.000	0
20080616 06:25	9.7	9.7	9.7	88	7.8	0	5	202	0.00	1008.774	16	0.000	0
20080616 06:30	9.7	9.7	9.7	88	7.8	0	5	202	0.00	1008.808	21	0.000	0
20080616 06:35	9.7	9.7	9.7	88	7.8	0	2	202	0.00	1008.842	25	0.000	0
20080616 06:40	9.8	9.8	9.8	89	8.1	2	6	202	0.00	1008.808	27	0.000	0
20080616 06:45	9.8	9.8	9.8	89	8.1	2	6	202	0.00	1008.910	37	0.000	0
20080616 06:50	9.8	9.8	9.8	89	8.1	2	6	202	0.00	1008.910	34	0.000	0
20080616 06:55	9.8	9.8	9.8	88	7.9	3	8	202	0.00	1008.943	36	0.000	0
20080616 07:00	9.8	9.8	9.8	88	7.9	3	8	202	0.00	1008.977	45	0.020	0
20080616 07:05	9.9	9.9	9.9	89	8.2	2	6	202	0.00	1009.045	52	0.000	0
20080616 07:10	9.9	9.9	9.9	89	8.2	3	8	202	0.00	1009.045	50	0.000	0
20080616 07:15	9.9	9.9	9.9	89	8.2	2	5	202	0.00	1009.079	64	0.000	0
20080616 07:20	10.1	10.1	10.1	89	8.3	3	6	202	0.20	1009.113	70	0.000	0
20080616 07:25	10.1	10.1	10.1	89	8.3	5	10	202	0.00	1009.181	73	0.000	0
20080616 07:30	10.1	10.1	10.1	89	8.3	3	8	202	0.00	1009.113	65	0.000	0
20080616 07:35	10.1	10.1	10.1	89	8.4	5	11	202	0.00	1009.248	56	0.000	0
20080616 07:40	10.1	10.1	10.1	89	8.4	3	10	202	0.00	1009.248	60	0.000	0
20080616 07:45	10.1	10.1	10.1	89	8.4	2	6	202	0.20	1009.282	66	0.000	0
20080616 07:50	10.2	10.2	10.2	89	8.4	2	6	202	0.00	1009.316	69	0.000	0
20080616 07:55	10.2	10.2	10.2	90	8.7	3	6	225	0.20	1009.350	66	0.000	0
20080616 08:00	10.2	10.2	10.2	89	8.4	3	8	225	0.00	1009.384	78	0.020	0
20080616 08:05	10.2	10.2	10.2	90	8.7	2	10	247	0.00	1009.688	88	0.000	0
20080616 08:10	10.3	10.3	10.3	90	8.7	3	6	247	0.20	1009.587	86	0.000	0
20080616 08:15	10.3	10.3	10.3	90	8.7	5	10	225	0.00	1009.655	81	0.000	0
20080616 08:20	10.3	10.3	10.3	90	8.7	3	10	225	0.00	1009.621	84	0.000	0
20080616 08:25	10.3	10.3	10.3	89	8.6	5	10	225	0.00	1009.655	99	0.000	0
20080616 08:30	10.3	10.3	10.3	89	8.6	3	10	225	0.20	1009.688	124	0.000	1
20080616 08:35	10.4	10.4	10.4	89	8.7	3	10	247	0.00	1009.655	148	0.000	1
20080616 08:40	10.5	10.5	10.5	90	8.9	3	10	225	0.00	1009.688	159	0.000	1
20080616 08:45	10.6	10.6	10.6	89	8.8	3	8	247	0.00	1009.756	146	0.000	1
20080616 08:50	10.6	10.6	10.6	88	8.7	5	10	225	0.00	1009.824	120	0.000	1
20080616 08:55	10.6	10.6	10.6	89	8.8	3	8	225	0.00	1009.790	163	0.000	1
20080616 09:00	10.7	10.7	10.7	89	8.9	3	8	225	0.20	1009.790	194	0.040	1
20080616 09:05	10.8	10.8	10.8	89	9.0	3	10	247	0.00	1009.959	144	0.000	1
20080616 09:10	10.8	10.8	10.8	88	8.9	3	11	247	0.00	1009.926	156	0.000	1
20080616 09:15	10.8	10.8	10.8	88	8.9	3	8	247	0.00	1009.926	208	0.000	1
20080616 09:20	10.9	10.9	10.9	89	9.2	2	6	225	0.00	1009.824	221	0.000	1
20080616 09:25	11.1	11.1	11.1	88	9.1	3	10	225	0.00	1009.790	238	0.000	2
20080616 09:30	11.2	11.2	11.2	88	9.3	3	8	225	0.00	1009.790	216	0.000	2
20080616 09:35	11.2	11.2	11.2	87	9.1	3	11	247	0.20	1009.858	214	0.000	2
20080616 09:40	11.2	11.2	11.2	87	9.1	5	10	247	0.00	1009.756	275	0.000	2
20080616 09:45	11.2	11.2	11.2	86	9.0	5	11	225	0.00	1009.824	311	0.000	2
20080616 09:50	11.3	11.3	11.3	85	8.9	3	6	247	0.00	1009.756	267	0.000	2
20080616 09:55	11.4	11.4	11.4	86	9.1	5	10	247	0.00	1009.688	235	0.000	2
20080616 10:00	11.5	11.5	11.5	85	9.1	5	8	247	0.00	1009.655	203	0.080	2
20080616 10:05	11.5	11.5	11.5	85	9.1	5	11	225	0.00	1009.824	230	0.000	2
20080616 10:10	11.6	11.6	11.6	84	8.9	3	8	225	0.00	1009.790	220	0.000	2
20080616 10:15	11.5	11.5	11.5	85	9.1	3	10	225	0.00	1009.824	203	0.000	2
20080616 10:20	11.6	11.6	11.6	86	9.3	2	6	247	0.00	1009.790	190	0.000	2
20080616 10:25	11.7	11.7	11.7	86	9.5	2	8	247	0.00	1009.858	168	0.000	1
20080616 10:30	11.7	11.7	11.7	85	9.3	3	10	225	0.00	1009.824	191	0.000	2
20080616 10:35	11.7	11.7	11.7	86	9.5	5	10	247	0.00	1009.824	209	0.000	2
20080616 10:40	11.7	11.7	11.7	85	9.3	5	10	270	0.00	1009.824	212	0.000	2
20080616 10:45	11.7	11.7	11.7	84	9.1	5	10	270	0.00	1009.858	210	0.000	2
20080616 10:50	11.7	11.7	11.7	85	9.2	3	8	247	0.00	1009.892	205	0.000	2
20080616 10:55	11.7	11.7	11.7	86	9.5	3	6	270	0.20	1009.892	230	0.000	2
20080616 11:00	11.8	11.8	11.8	86	9.6	3	10	247	0.00	1009.993	236	0.080	2
20080616 11:05	11.8	11.8	11.8	86	9.6	3	8	225	0.00	1009.959	222	0.000	2
20080616 11:10	11.8	11.8	11.8	86	9.6	5	11	225	0.00	1009.926	234	0.000	2
20080616 11:15	11.8	11.8	11.8	85	9.3	5	14	247	0.00	1009.959	248	0.000	2
20080616 11:20	11.8	11.8	11.8	85	9.3	5	10	247	0.00	1009.926	276	0.000	3
20080616 11:25	11.8	11.8	11.8	85	9.4	3	11	225	0.00	1009.959	309	0.000	3
20080616 11:30	11.9	11.9	11.9	85	9.5	5	8	247	0.00	1009.892	292	0.000	3
20080616 11:35	11.9	11.9	11.9	83	9.1	6	14	247	0.00	1010.061	282	0.000	3
20080616 11:40	11.8	11.8	11.8	84	9.2	5	18	225	0.00	1010.095	268	0.000	3
20080616 11:45	11.9	11.9	11.9	83	9.1	5	11	225	0.00	1009.959	291	0.000	3
20080616 11:50	12.1	12.1	12.1	84	9.4	5	11	247	0.00	1010.095	291	0.000	3
20080616 11:55	12.1	12.1	12.1	82	9.1	5	8	247	0.00	1010.163	274	0.000	3
20080616 12:00	12.1	12.1	12.1	84	9.4	5	10	247	0.00	1010.095	248	0.100	2
20080616 12:05	12.0	12.0	12.0	85	9.6	3	10	225	0.00	1010.196	245	0.000	2
20080616 12:10	12.1	12.1	12.1	83	9.3	5	11	247	0.00	1010.196	254	0.000	2
20080616 12:15	12.1	12.1	12.1	82	9.1	5	11	247	0.20	1010.196	250	0.000	2
20080616 12:20	12.1	12.1	12.1	85	9.7	3	10	225	0.00	1010.230	271	0.000	3
20080616 12:25	12.1	12.1	12.1	82	9.1	5	14	247	0.00	1010.298	275	0.000	3
20080616 12:30	12.0	12.0	12.0	82	9.0	5	10	247	0.00	1010.196	279	0.000	3
20080616 12:35	12.1	12.1	12.1	84	9.4	2	6	247	0.00	1010.196	292	0.000	3
20080616 12:40	12.1	12.1	12.1	84	9.5	3	8	247	0.00	1010.163	329	0.000	3
20080616 12:45	12.3	12.3	12.3	84	9.7	3	11	247	0.00	1010.129	421	0.000	4
20080616 12:50	12.3	12.3	12.3	83	9.5	3	11	225	0.00	1010.095	378	0.000	4
20080616 12:55	12.5	12.5	12.5	83	9.7	5	11	225	0.00	1009.993	391	0.000	4
20080616 13:00	12.6	12.6	12.6	81	9.4	3	11	225	0.00	1009.926	372	0.120	4
20080616 13:05	12.7	12.7	12.7	82	9.7	2	8	202	0.00	1010.061	338	0.000	3
20080616 13:10	12.8	12.8	12.8	80	9.4	2	8	225	0.00	1010.027	274	0.000	3
20080616 13:15	12.8	12.8	12.8	81	9.7	3	10	202	0.00	1010.061	266	0.000	3
20080616 13:20	12.8	12.8	12.8	80	9.4	3	10	202	0.00	1010.061	264	0.000	3
20080616 13:25	12.7	12.7	12.7	81	9.5	3	6	247	0.00	1009.993	262	0.000	3
20080616 13:30	12.7	12.7	12.7	81	9.5	2	8	225	0.00	1010.061	302	0.000	3
20080616 13:35	12.8	12.8	12.8	82	9.8	2	10	225	0.00	1009.993	378	0.000	4
20080616 13:40	13.0	13.0	13.0	81	9.8	2	10	225	0.00	1009.926	485	0.000	4
20080616 13:45	13.3	13.3	13.3	81	10.1	0	3	225	0.00	1009.824	538	0.000	5
20080616 13:50	13.8	13.8	13.8	78	10.0	3	10	270	0.00	1009.756	732	0.000	6
20080616 13:55	14.1	14.1	14.1	76	9.9	2	10	270	0.00	1009.756	491	0.000	5
20080616 14:00	14.0	14.0	14.0	76	9.8	3	8	225	0.00	1009.688	618	0.160	5
20080616 14:05	14.1	14.1	14.1	74	9.5	2	6	225	0.00	1009.621	507	0.000	5
20080616 14:10	13.9	13.9	13.9	71	8.8	3	10	225	0.00	1009.655	471	0.000	5
20080616 14:15	14.1	14.1	14.1	70	8.7	2	14	270	0.00	1009.655	528	0.000	5
20080616 14:20	14.0	14.0	14.0	68	8.2	3	11	292	0.00	1009.587	584	0.000	5
20080616 14:25	14.3	14.3	14.3	73	9.5	3	11	270	0.00	1009.384	584	0.000	6
20080616 14:30	14.7	14.7	14.7	69	9.1	3	10	247	0.00	1009.418	622	0.000	7
20080616 14:35	14.8	14.8	14.8	67	8.7	5	11	270	0.00	1009.485	596	0.000	6
20080616 14:40	15.0	15.0	15.0	70	9.6	3	10	225	0.00	1009.384	568	0.000	6
20080616 14:45	15.2	15.2	15.2	68	9.4	3	8	292	0.00	1009.451	488	0.000	4
20080616 14:50	15.1	15.1	15.1	67	9.0	3	6	292	0.00	1009.418	430	0.000	4
20080616 14:55	15.0	15.0	15.0	67	8.9	0	5	270	0.00	1009.418	329	0.000	3
20080616 15:00	15.0	15.0	15.0	72	10.0	3	10	247	0.00	1009.384	349	0.220	3
20080616 15:05	15.0	15.0	15.0	68	9.1	3	10	225	0.00	1009.418	324	0.000	3
20080616 15:10	14.9	14.9	14.9	70	9.5	3	8	247	0.00	1009.350	288	0.000	3
20080616 15:15	14.8	14.8	14.8	69	9.1	3	10	247	0.00	1009.384	251	0.000	2
20080616 15:20	14.7	14.7	14.7	68	8.9	3	6	270	0.00	1009.350	232	0.000	2
20080616 15:25	14.7	14.7	14.7	71	9.5	3	8	225	0.00	1009.282	251	0.000	2
20080616 15:30	14.6	14.6	14.6	69	9.0	3	8	247	0.00	1009.282	302	0.000	2
20080616 15:35	14.6	14.6	14.6	72	9.6	3	8	247	0.00	1009.316	278	0.000	2
20080616 15:40	14.6	14.6	14.6	72	9.6	3	10	225	0.00	1009.316	309	0.000	3
20080616 15:45	14.7	14.7	14.7	69	9.0	0	5	225	0.00	1009.316	281	0.000	2
20080616 15:50	14.7	14.7	14.7	69	9.1	2	6	270	0.00	1009.214	272	0.000	2
20080616 15:55	14.7	14.7	14.7	69	9.0	3	8	225	0.00	1009.147	315	0.000	3
20080616 16:00	14.7	14.7	14.7	69	9.0	3	8	225	0.00	1009.079	277	0.120	2
20080616 16:05	14.7	14.7	14.7	69	9.0	3	6	270	0.00	1009.011	300	0.000	2
20080616 16:10	14.9	14.9	14.9	68	9.1	2	6	225	0.00	1008.977	352	0.000	3
20080616 16:15	15.0	15.0	15.0	69	9.4	2	5	225	0.00	1009.045	308	0.000	2
20080616 16:20	15.0	15.0	15.0	66	8.7	2	6	225	0.00	1009.011	278	0.000	2
20080616 16:25	15.1	15.1	15.1	70	9.7	0	3	225	0.00	1009.045	319	0.000	2
20080616 16:30	15.2	15.2	15.2	67	9.1	3	10	247	0.00	1008.977	337	0.000	2
20080616 16:35	15.1	15.1	15.1	68	9.2	2	8	270	0.00	1009.079	241	0.000	2
20080616 16:40	15.0	15.0	15.0	68	9.1	2	8	225	0.00	1009.011	201	0.000	2
20080616 16:45	15.0	15.0	15.0	68	9.1	2	6	247	0.00	1009.011	143	0.000	1
20080616 16:50	15.0	15.0	15.0	69	9.4	0	6	247	0.00	1009.045	149	0.000	1
20080616 16:55	15.0	15.0	15.0	70	9.6	3	6	247	0.00	1009.011	204	0.000	1
20080616 17:00	15.0	15.0	15.0	71	9.8	2	5	247	0.00	1009.011	235	0.120	2
20080616 17:05	15.0	15.0	15.0	71	9.8	2	5	247	0.00	1009.079	228	0.000	2
20080616 17:10	15.0	15.0	15.0	69	9.4	3	8	225	0.00	1009.079	189	0.000	1
20080616 17:15	15.0	15.0	15.0	68	9.1	2	8	247	0.00	1009.011	164	0.000	1
20080616 17:20	15.0	15.0	15.0	68	9.1	2	5	247	0.00	1009.045	153	0.000	1
20080616 17:25	15.0	15.0	15.0	68	9.1	2	6	225	0.00	1009.045	150	0.000	1
20080616 17:30	15.0	15.0	15.0	68	9.1	2	6	225	0.00	1008.977	156	0.000	1
20080616 17:35	15.0	15.0	15.0	68	9.1	2	10	225	0.00	1009.011	146	0.000	1
20080616 17:40	15.0	15.0	15.0	69	9.4	2	5	247	0.00	1008.977	154	0.000	1
20080616 17:45	15.0	15.0	15.0	70	9.6	0	5	247	0.00	1008.943	152	0.000	1
20080616 17:50	15.0	15.0	15.0	69	9.4	2	6	247	0.00	1008.943	158	0.000	1
20080616 17:55	15.0	15.0	15.0	71	9.8	2	6	247	0.00	1008.943	153	0.000	1
20080616 18:00	15.0	15.0	15.0	69	9.4	3	10	225	0.00	1009.011	135	0.080	1
20080616 18:05	15.0	15.0	15.0	70	9.6	2	6	225	0.00	1008.977	106	0.000	0
20080616 18:10	14.9	14.9	14.9	69	9.3	3	8	225	0.00	1009.045	86	0.000	0
20080616 18:15	14.8	14.8	14.8	70	9.4	2	5	225	0.00	1009.011	83	0.000	0
20080616 18:20	14.8	14.8	14.8	70	9.4	0	3	225	0.00	1009.011	86	0.000	0
20080616 18:25	14.8	14.8	14.8	70	9.4	0	5	225	0.00	1008.977	71	0.000	0
20080616 18:30	14.7	14.7	14.7	70	9.3	2	8	202	0.00	1009.079	55	0.000	0
20080616 18:35	14.6	14.6	14.6	69	9.0	2	8	202	0.00	1009.214	44	0.000	0
20080616 18:40	14.6	14.6	14.6	70	9.1	0	5	202	0.00	1009.147	45	0.000	0
20080616 18:45	14.5	14.5	14.5	71	9.3	0	5	202	0.00	1009.181	60	0.000	0
20080616 18:50	14.5	14.5	14.5	72	9.5	0	6	202	0.00	1009.181	73	0.000	0
20080616 18:55	14.4	14.4	14.4	74	9.9	2	6	202	0.00	1009.147	73	0.000	0
20080616 19:00	14.4	14.4	14.4	75	10.0	3	6	202	0.00	1009.214	59	0.040	0
20080616 19:05	14.3	14.3	14.3	75	9.9	2	8	202	0.00	1009.214	49	0.000	0
20080616 19:10	14.2	14.2	14.2	78	10.4	2	6	202	0.00	1009.214	52	0.000	0
20080616 19:15	14.0	14.0	14.0	77	10.0	2	6	202	0.20	1009.350	67	0.000	0
20080616 19:20	13.9	13.9	13.9	79	10.3	2	10	202	0.00	1009.316	84	0.000	0
20080616 19:25	13.8	13.8	13.8	81	10.6	0	5	202	0.00	1009.350	82	0.000	0
20080616 19:30	13.8	13.8	13.8	81	10.6	0	2	202	0.00	1009.350	65	0.000	0
20080616 19:35	13.8	13.8	13.8	81	10.6	0	5	202	0.00	1009.350	44	0.000	0
20080616 19:40	13.7	13.7	13.7	81	10.5	0	5	202	0.00	1009.384	36	0.000	0
20080616 19:45	13.7	13.7	13.7	81	10.5	2	5	202	0.00	1009.350	33	0.000	0
20080616 19:50	13.7	13.7	13.7	81	10.5	2	8	202	0.00	1009.384	27	0.000	0
20080616 19:55	13.6	13.6	13.6	81	10.4	2	6	202	0.00	1009.350	28	0.000	0
20080616 20:00	13.7	13.7	13.7	82	10.6	0	3	202	0.00	1009.350	32	0.020	0
20080616 20:05	13.7	13.7	13.7	81	10.5	0	5	202	0.00	1009.248	31	0.000	0
20080616 20:10	13.7	13.7	13.7	82	10.6	0	2	202	0.00	1009.282	27	0.000	0
20080616 20:15	13.7	13.7	13.7	82	10.6	0	0	202	0.00	1009.384	21	0.000	0
20080616 20:20	13.7	13.7	13.7	82	10.6	0	3	202	0.00	1009.384	19	0.000	0
20080616 20:25	13.6	13.6	13.6	82	10.6	0	3	202	0.00	1009.384	17	0.000	0
20080616 20:30	13.6	13.6	13.6	83	10.8	0	2	202	0.00	1009.418	16	0.000	0
20080616 20:35	13.6	13.6	13.6	83	10.8	0	2	202	0.00	1009.519	12	0.000	0
20080616 20:40	13.6	13.6	13.6	84	10.9	0	0	202	0.00	1009.587	10	0.000	0
20080616 20:45	13.6	13.6	13.6	84	10.9	0	2	202	0.00	1009.587	7	0.000	0
20080616 20:50	13.5	13.5	13.5	83	10.7	0	2	202	0.00	1009.655	6	0.000	0
20080616 20:55	13.4	13.4	13.4	84	10.8	0	2	202	0.00	1009.722	5	0.000	0
20080616 21:00	13.4	13.4	13.4	84	10.8	0	0	202	0.00	1009.756	2	0.000	0
20080616 21:05	13.4	13.4	13.4	85	10.9	0	0	202	0.00	1009.621	0	0.000	0
20080616 21:10	13.3	13.3	13.3	85	10.9	0	2	202	0.00	1009.756	0	0.000	0
20080616 21:15	13.3	13.3	13.3	86	11.0	0	0	202	0.00	1009.722	0	0.000	0
20080616 21:20	13.2	13.2	13.2	86	10.9	0	0	202	0.00	1009.756	0	0.000	0
20080616 21:25	13.2	13.2	13.2	86	10.9	0	0	202	0.00	1009.790	0	0.000	0
20080616 21:30	13.2	13.2	13.2	86	10.9	0	2	202	0.00	1009.824	0	0.000	0
20080616 21:35	13.1	13.1	13.1	86	10.8	0	0	202	0.00	1009.926	0	0.000	0
20080616 21:40	13.1	13.1	13.1	87	10.9	0	0	202	0.00	1009.993	0	0.000	0
20080616 21:45	13.1	13.1	13.1	87	10.9	0	0	202	0.00	1010.061	0	0.000	0
20080616 21:50	13.0	13.0	13.0	87	10.9	0	0	202	0.00	1010.061	0	0.000	0
20080616 21:55	13.0	13.0	13.0	88	11.1	0	0	202	0.00	1010.163	0	0.000	0
20080616 22:00	12.9	12.9	12.9	88	11.0	0	0	202	0.00	1010.230	0	0.000	0
20080616 22:05	12.9	12.9	12.9	88	10.9	0	0	202	0.00	1010.264	0	0.000	0
20080616 22:10	12.9	12.9	12.9	87	10.8	0	5	202	0.00	1010.298	0	0.000	0
20080616 22:15	12.8	12.8	12.8	88	10.9	0	0	202	0.00	1010.332	0	0.000	0
20080616 22:20	12.8	12.8	12.8	88	10.9	0	0	202	0.20	1010.400	0	0.000	0
20080616 22:25	12.7	12.7	12.7	88	10.8	0	0	202	0.00	1010.400	0	0.000	0
20080616 22:30	12.7	12.7	12.7	87	10.6	0	0	202	0.00	1010.433	0	0.000	0
20080616 22:35	12.6	12.6	12.6	87	10.5	0	0	202	0.00	1010.400	0	0.000	0
20080616 22:40	12.6	12.6	12.6	88	10.6	0	0	202	0.00	1010.433	0	0.000	0
20080616 22:45	12.6	12.6	12.6	88	10.6	0	0	202	0.00	1010.433	0	0.000	0
20080616 22:50	12.4	12.4	12.4	88	10.5	0	0	202	0.00	1010.501	0	0.000	0
20080616 22:55	12.4	12.4	12.4	88	10.5	0	0	202	0.00	1010.637	0	0.000	0
20080616 23:00	12.3	12.3	12.3	88	10.4	0	0	202	0.20	1010.603	0	0.000	0
20080616 23:05	12.3	12.3	12.3	88	10.3	0	0	202	0.00	1010.535	0	0.000	0
20080616 23:10	12.2	12.2	12.2	88	10.3	0	0	202	0.00	1010.535	0	0.000	0
20080616 23:15	12.2	12.2	12.2	88	10.3	0	0	202	0.00	1010.535	0	0.000	0
20080616 23:20	12.2	12.2	12.2	89	10.4	0	0	202	0.00	1010.501	0	0.000	0
20080616 23:25	12.2	12.2	12.2	89	10.4	0	0	202	0.00	1010.501	0	0.000	0
20080616 23:30	12.2	12.2	12.2	89	10.4	0	0	202	0.00	1010.569	0	0.000	0
20080616 23:35	12.1	12.1	12.1	89	10.4	0	2	202	0.00	1010.704	0	0.000	0
20080616 23:40	12.1	12.1	12.1	89	10.3	0	3	202	0.20	1010.704	0	0.000	0
20080616 23:45	12.1	12.1	12.1	90	10.5	0	2	202	0.00	1010.772	0	0.000	0
20080616 23:50	12.1	12.1	12.1	90	10.5	0	3	202	0.00	1010.806	0	0.000	0
20080616 23:55	11.9	11.9	11.9	90	10.4	0	2	202	0.20	1010.806	0	0.000	0
20080616 24:00	11.9	11.9	11.9	90	10.3	0	2	202	0.00	1010.806	0	0.000	0



Please note the license to use and transfer of this data:
http://creativecommons.org/licenses/by-nc-sa/3.0/deed.en

Bitte beachten sie die Lizenz zur Verwertung und Weitergabe der Daten:
http://creativecommons.org/licenses/by-nc-sa/3.0/deed.de

zurück zur Übersicht der Archivdaten (Monats und Tagesdaten)

Cookies helfen bei der Bereitstellung von Inhalten. Durch die Nutzung dieser Seiten erklärst du dich damit einverstanden, dass Cookies auf deinem Rechner gespeichert werden. Weitere Information